createdAt,value
2023-04-09T00:02:22.805Z,102007.31
2023-04-09T00:04:51.037Z,102015.97
2023-04-09T00:07:19.893Z,102014.28
2023-04-09T00:09:48.247Z,102022.19
2023-04-09T00:12:17.907Z,102011.66
2023-04-09T00:14:50.676Z,102009.97
2023-04-09T00:17:21.698Z,102008.25
2023-04-09T00:19:50.348Z,102013.44
2023-04-09T00:22:19.140Z,102015.13
2023-04-09T00:24:49.217Z,102003.75
2023-04-09T00:27:19.208Z,102001.03
2023-04-09T00:29:49.474Z,102003.56
2023-04-09T00:32:20.117Z,101988.97
2023-04-09T00:34:48.235Z,101991.63
2023-04-09T00:37:18.850Z,101996.88
2023-04-09T00:39:47.760Z,101996.03
2023-04-09T00:42:16.625Z,102006.78
2023-04-09T00:44:47.526Z,102004.25
2023-04-09T00:47:15.815Z,102002.84
2023-04-09T00:49:47.088Z,102005.03
2023-04-09T00:52:15.740Z,101996.69
2023-04-09T00:54:43.976Z,101999.50
2023-04-09T00:57:12.501Z,102002.34
2023-04-09T00:59:40.773Z,101996.44
2023-04-09T01:02:12.366Z,102003.00
2023-04-09T01:04:43.306Z,101997.31
2023-04-09T01:07:16.729Z,101997.66
2023-04-09T01:09:52.266Z,102002.22
2023-04-09T01:12:31.644Z,102001.63
2023-04-09T01:15:05.469Z,102005.31
2023-04-09T01:17:39.670Z,102002.75
2023-04-09T01:20:12.964Z,102000.31
2023-04-09T01:22:57.327Z,102004.94
2023-04-09T01:25:45.621Z,102007.75
2023-04-09T01:28:20.496Z,101997.59
2023-04-09T01:30:51.157Z,101998.53
2023-04-09T01:33:21.158Z,101998.66
2023-04-09T01:35:50.964Z,102002.22
2023-04-09T01:38:25.236Z,102003.16
2023-04-09T01:40:53.915Z,102000.72
2023-04-09T01:43:25.180Z,101997.41
2023-04-09T01:45:53.773Z,102004.63
2023-04-09T01:48:22.749Z,101996.09
2023-04-09T01:50:54.615Z,101986.53
2023-04-09T01:53:23.601Z,101992.72
2023-04-09T01:55:57.927Z,101982.66
2023-04-09T01:58:27.869Z,101990.28
2023-04-09T02:01:01.446Z,101990.75
2023-04-09T02:03:34.137Z,101986.34
2023-04-09T02:06:07.908Z,101979.47
2023-04-09T02:08:41.086Z,101991.00
2023-04-09T02:11:12.595Z,101979.75
2023-04-09T02:13:45.461Z,101975.63
2023-04-09T02:16:17.063Z,101982.09
2023-04-09T02:18:45.819Z,101981.16
2023-04-09T02:21:14.230Z,101983.28
2023-04-09T02:23:42.928Z,101992.22
2023-04-09T02:26:11.386Z,101990.78
2023-04-09T02:28:39.585Z,101991.63
2023-04-09T02:31:09.183Z,101990.03
2023-04-09T02:33:37.492Z,101979.78
2023-04-09T02:36:06.000Z,101985.16
2023-04-09T02:38:34.355Z,101986.94
2023-04-09T02:41:03.018Z,101985.25
2023-04-09T02:43:33.549Z,101988.03
2023-04-09T02:46:01.682Z,101992.28
2023-04-09T02:48:31.293Z,101994.06
2023-04-09T02:51:00.180Z,101988.88
2023-04-09T02:53:28.356Z,101989.72
2023-04-09T02:55:57.086Z,101984.31
2023-04-09T02:58:25.574Z,101988.63
2023-04-09T03:01:02.651Z,101997.31
2023-04-09T03:03:32.221Z,101994.53
2023-04-09T03:06:00.546Z,101988.34
2023-04-09T03:08:28.722Z,101990.88
2023-04-09T03:10:56.840Z,101986.47
2023-04-09T03:13:26.712Z,101986.28
2023-04-09T03:15:54.990Z,101983.50
2023-04-09T03:18:23.314Z,101983.38
2023-04-09T03:20:54.223Z,101980.56
2023-04-09T03:23:22.534Z,101979.72
2023-04-09T03:25:51.215Z,101970.91
2023-04-09T03:28:19.298Z,101966.50
2023-04-09T03:30:47.428Z,101963.78
2023-04-09T03:33:16.060Z,101976.06
2023-04-09T03:35:44.619Z,101969.88
2023-04-09T03:38:14.094Z,101973.34
2023-04-09T03:40:43.348Z,101977.69
2023-04-09T03:43:11.512Z,101970.53
2023-04-09T03:45:39.537Z,101967.91
2023-04-09T03:48:07.834Z,101978.44
2023-04-09T03:50:41.332Z,101976.66
2023-04-09T03:53:09.888Z,101981.69
2023-04-09T03:55:40.745Z,101977.28
2023-04-09T03:58:08.812Z,101980.69
2023-04-09T04:00:36.987Z,101973.63
2023-04-09T04:03:05.535Z,101972.69
2023-04-09T04:05:33.962Z,101975.41
2023-04-09T04:08:02.085Z,101971.19
2023-04-09T04:10:30.262Z,101977.03
2023-04-09T04:12:59.789Z,101980.50
2023-04-09T04:15:27.917Z,101977.03
2023-04-09T04:17:56.180Z,101974.41
2023-04-09T04:20:24.322Z,101971.00
2023-04-09T04:22:52.613Z,101971.84
2023-04-09T04:25:20.687Z,101973.72
2023-04-09T04:27:48.755Z,101975.31
2023-04-09T04:30:18.657Z,101970.81
2023-04-09T04:32:48.313Z,101969.72
2023-04-09T04:35:16.665Z,101969.41
2023-04-09T04:37:44.773Z,101975.16
2023-04-09T04:40:13.063Z,101974.69
2023-04-09T04:42:41.381Z,101976.19
2023-04-09T04:45:10.730Z,101978.25
2023-04-09T04:47:40.269Z,101977.13
2023-04-09T04:50:10.111Z,101975.16
2023-04-09T04:52:38.958Z,101971.50
2023-04-09T04:55:07.936Z,101978.41
2023-04-09T04:57:36.172Z,101973.81
2023-04-09T05:00:04.955Z,101972.13
2023-04-09T05:02:33.789Z,101984.25
2023-04-09T05:05:03.347Z,101977.00
2023-04-09T05:07:32.520Z,101989.16
2023-04-09T05:10:01.039Z,101991.69
2023-04-09T05:12:29.238Z,101987.13
2023-04-09T05:14:57.647Z,101992.41
2023-04-09T05:17:26.364Z,101987.72
2023-04-09T05:19:55.080Z,101993.06
2023-04-09T05:22:24.975Z,101992.13
2023-04-09T05:24:53.876Z,101989.00
2023-04-09T05:27:24.322Z,101984.97
2023-04-09T05:29:52.543Z,101986.91
2023-04-09T05:32:20.746Z,101984.59
2023-04-09T05:34:49.221Z,101991.63
2023-04-09T05:37:17.361Z,101978.91
2023-04-09T05:39:47.010Z,101986.84
2023-04-09T05:42:15.149Z,101986.03
2023-04-09T05:44:43.722Z,101993.03
2023-04-09T05:47:11.746Z,101988.06
2023-04-09T05:49:42.368Z,101987.38
2023-04-09T05:52:10.659Z,101996.25
2023-04-09T05:54:39.045Z,101993.59
2023-04-09T05:57:08.641Z,101988.63
2023-04-09T05:59:36.820Z,101991.16
2023-04-09T06:02:05.213Z,101994.84
2023-04-09T06:04:33.594Z,101990.50
2023-04-09T06:07:01.855Z,101991.56
2023-04-09T06:09:29.987Z,101991.13
2023-04-09T06:11:58.479Z,101995.13
2023-04-09T06:14:28.380Z,101992.66
2023-04-09T06:17:00.120Z,101994.53
2023-04-09T06:19:28.423Z,101992.94
2023-04-09T06:21:56.770Z,101998.88
2023-04-09T06:24:24.945Z,101995.00
2023-04-09T06:26:54.897Z,101994.19
2023-04-09T06:29:24.356Z,101995.81
2023-04-09T06:31:54.161Z,101998.03
2023-04-09T06:34:22.595Z,101997.63
2023-04-09T06:36:50.943Z,101990.88
2023-04-09T06:39:19.076Z,101995.00
2023-04-09T06:41:48.107Z,102002.00
2023-04-09T06:44:16.413Z,102003.44
2023-04-09T06:46:44.648Z,102011.88
2023-04-09T06:49:14.194Z,102012.09
2023-04-09T06:51:42.483Z,101995.47
2023-04-09T06:54:10.958Z,102003.88
2023-04-09T06:56:39.132Z,102014.94
2023-04-09T06:59:07.439Z,102014.19
2023-04-09T07:01:37.881Z,102007.94
2023-04-09T07:04:07.282Z,102009.78
2023-04-09T07:06:37.054Z,102015.94
2023-04-09T07:09:05.567Z,102014.25
2023-04-09T07:11:34.034Z,102017.78
2023-04-09T07:14:02.207Z,102015.31
2023-04-09T07:16:30.903Z,102015.81
2023-04-09T07:18:59.157Z,102016.69
2023-04-09T07:21:28.727Z,102015.88
2023-04-09T07:23:58.268Z,102015.91
2023-04-09T07:26:26.504Z,102019.16
2023-04-09T07:28:54.693Z,102019.56
2023-04-09T07:31:23.068Z,102027.72
2023-04-09T07:36:19.448Z,102020.19
2023-04-09T07:38:47.958Z,102017.25
2023-04-09T07:41:17.628Z,102025.66
2023-04-09T07:43:49.456Z,102022.19
2023-04-09T07:46:22.099Z,102026.66
2023-04-09T07:48:53.273Z,102027.91
2023-04-09T07:51:21.668Z,102018.38
2023-04-09T07:53:50.321Z,102028.28
2023-04-09T07:56:19.959Z,102020.13
2023-04-09T07:58:49.397Z,102023.44
2023-04-09T08:01:17.696Z,102017.38
2023-04-09T08:03:46.160Z,102016.78
2023-04-09T08:06:15.803Z,102022.69
2023-04-09T08:08:46.691Z,102028.41
2023-04-09T08:11:14.813Z,102023.50
2023-04-09T08:13:46.091Z,102029.81
2023-04-09T08:16:15.705Z,102028.84
2023-04-09T08:18:43.772Z,102022.91
2023-04-09T08:21:12.777Z,102028.34
2023-04-09T08:23:47.534Z,102026.97
2023-04-09T08:26:15.777Z,102029.63
2023-04-09T08:28:45.642Z,102028.09
2023-04-09T08:31:13.892Z,102028.56
2023-04-09T08:33:43.036Z,102031.75
2023-04-09T08:36:11.925Z,102025.44
2023-04-09T08:38:40.806Z,102032.94
2023-04-09T08:41:08.921Z,102021.78
2023-04-09T08:43:53.211Z,102024.22
2023-04-09T08:46:27.576Z,102021.66
2023-04-09T08:48:56.524Z,102015.69
2023-04-09T08:51:25.866Z,102023.63
2023-04-09T08:53:58.566Z,102017.56
2023-04-09T08:56:27.689Z,102013.41
2023-04-09T08:58:58.899Z,102013.34
2023-04-09T09:01:29.997Z,102008.63
2023-04-09T09:04:00.535Z,102014.94
2023-04-09T09:06:32.851Z,102018.50
2023-04-09T09:09:03.657Z,102014.59
2023-04-09T09:11:31.903Z,102011.19
2023-04-09T09:14:03.905Z,102003.84
2023-04-09T09:16:36.036Z,102007.78
2023-04-09T09:19:04.833Z,102005.00
2023-04-09T09:21:33.537Z,102009.56
2023-04-09T09:24:01.974Z,102000.91
2023-04-09T09:26:31.545Z,101998.91
2023-04-09T09:29:01.753Z,101996.22
2023-04-09T09:31:30.085Z,101995.56
2023-04-09T09:34:09.512Z,102000.41
2023-04-09T09:36:37.657Z,102007.78
2023-04-09T09:39:10.358Z,102000.03
2023-04-09T09:41:43.058Z,101989.09
2023-04-09T09:44:12.865Z,101996.81
2023-04-09T09:46:42.810Z,101987.94
2023-04-09T09:49:12.401Z,101991.31
2023-04-09T09:51:44.317Z,101991.00
2023-04-09T09:54:13.126Z,101988.84
2023-04-09T09:56:45.580Z,101985.69
2023-04-09T09:59:21.289Z,101980.00
2023-04-09T10:01:53.070Z,101984.19
2023-04-09T10:04:24.789Z,101985.19
2023-04-09T10:06:54.160Z,101983.00
2023-04-09T10:09:24.626Z,101990.88
2023-04-09T10:11:53.154Z,101989.53
2023-04-09T10:14:22.558Z,101980.50
2023-04-09T10:16:51.815Z,101989.56
2023-04-09T10:19:20.743Z,101980.16
2023-04-09T10:21:55.330Z,101981.84
2023-04-09T10:24:24.054Z,101975.81
2023-04-09T10:26:56.095Z,101976.81
2023-04-09T10:29:30.000Z,101971.78
2023-04-09T10:32:06.466Z,101970.75
2023-04-09T10:34:37.888Z,101967.56
2023-04-09T10:37:10.179Z,101958.19
2023-04-09T10:39:42.857Z,101968.09
2023-04-09T10:42:15.526Z,101957.38
2023-04-09T10:44:44.664Z,101958.16
2023-04-09T10:47:13.232Z,101954.66
2023-04-09T10:49:43.028Z,101954.31
2023-04-09T10:52:16.005Z,101956.44
2023-04-09T10:54:47.841Z,101950.91
2023-04-09T10:57:21.661Z,101954.41
2023-04-09T10:59:52.419Z,101946.19
2023-04-09T11:03:01.957Z,101949.34
2023-04-09T11:05:34.932Z,101959.59
2023-04-09T11:08:09.645Z,101966.34
2023-04-09T11:10:39.060Z,101960.81
2023-04-09T11:13:07.293Z,101951.03
2023-04-09T11:15:37.443Z,101950.84
2023-04-09T11:18:07.255Z,101948.84
2023-04-09T11:20:36.409Z,101945.28
2023-04-09T11:23:06.920Z,101940.53
2023-04-09T11:25:35.975Z,101947.03
2023-04-09T11:28:05.271Z,101951.06
2023-04-09T11:30:34.620Z,101945.38
2023-04-09T11:33:03.615Z,101942.69
2023-04-09T11:35:31.953Z,101944.69
2023-04-09T11:38:00.745Z,101947.63
2023-04-09T11:40:30.660Z,101956.72
2023-04-09T11:42:58.773Z,101949.22
2023-04-09T11:45:29.106Z,101939.78
2023-04-09T11:48:00.808Z,101949.16
2023-04-09T11:50:29.393Z,101943.78
2023-04-09T11:52:57.631Z,101945.28
2023-04-09T11:55:27.439Z,101947.63
2023-04-09T11:58:01.226Z,101936.66
2023-04-09T12:00:30.243Z,101932.41
2023-04-09T12:03:04.062Z,101926.56
2023-04-09T12:05:34.163Z,101933.31
2023-04-09T12:08:05.239Z,101926.75
2023-04-09T12:10:35.513Z,101924.34
2023-04-09T12:13:08.309Z,101926.81
2023-04-09T12:15:38.951Z,101929.66
2023-04-09T12:18:12.995Z,101927.81
2023-04-09T12:20:43.752Z,101921.97
2023-04-09T12:23:13.112Z,101924.97
2023-04-09T12:25:43.174Z,101915.81
2023-04-09T12:28:18.594Z,101923.03
2023-04-09T12:30:48.542Z,101926.03
2023-04-09T12:33:16.731Z,101927.97
2023-04-09T12:35:44.947Z,101917.59
2023-04-09T12:38:14.600Z,101910.63
2023-04-09T12:40:44.421Z,101914.81
2023-04-09T12:43:13.935Z,101912.59
2023-04-09T12:45:42.226Z,101909.53
2023-04-09T12:48:10.819Z,101906.03
2023-04-09T12:50:39.242Z,101914.28
2023-04-09T12:53:07.374Z,101916.53
2023-04-09T12:55:35.761Z,101914.81
2023-04-09T12:58:04.137Z,101913.41
2023-04-09T13:00:33.711Z,101906.13
2023-04-09T13:03:01.940Z,101910.06
2023-04-09T13:05:34.534Z,101913.56
2023-04-09T13:08:03.578Z,101917.09
2023-04-09T13:10:33.347Z,101908.88
2023-04-09T13:13:04.465Z,101909.91
2023-04-09T13:15:36.416Z,101904.88
2023-04-09T13:18:04.824Z,101904.28
2023-04-09T13:20:33.150Z,101888.28
2023-04-09T13:23:02.383Z,101898.13
2023-04-09T13:25:30.577Z,101902.25
2023-04-09T13:27:58.731Z,101897.09
2023-04-09T13:30:26.908Z,101885.84
2023-04-09T13:32:56.570Z,101892.41
2023-04-09T13:35:25.409Z,101892.59
2023-04-09T13:37:54.018Z,101886.72
2023-04-09T13:40:22.331Z,101885.69
2023-04-09T13:42:50.759Z,101886.84
2023-04-09T13:45:20.744Z,101874.97
2023-04-09T13:47:51.933Z,101874.16
2023-04-09T13:50:21.791Z,101879.16
2023-04-09T13:52:50.573Z,101880.63
2023-04-09T13:55:19.004Z,101875.06
2023-04-09T13:57:50.541Z,101869.69
2023-04-09T14:00:20.040Z,101862.44
2023-04-09T14:02:48.775Z,101865.69
2023-04-09T14:05:21.716Z,101868.16
2023-04-09T14:07:51.512Z,101867.47
2023-04-09T14:10:19.784Z,101867.94
2023-04-09T14:12:52.308Z,101866.81
2023-04-09T14:15:22.674Z,101869.41
2023-04-09T14:17:52.791Z,101855.34
2023-04-09T14:20:24.837Z,101864.25
2023-04-09T14:22:56.901Z,101864.59
2023-04-09T14:25:27.560Z,101864.41
2023-04-09T14:27:55.812Z,101859.00
2023-04-09T14:30:27.821Z,101854.56
2023-04-09T14:32:58.239Z,101851.88
2023-04-09T14:35:26.956Z,101857.03
2023-04-09T14:37:56.706Z,101849.50
2023-04-09T14:40:25.621Z,101847.78
2023-04-09T14:42:56.269Z,101851.38
2023-04-09T14:45:24.788Z,101848.03
2023-04-09T14:47:53.729Z,101851.56
2023-04-09T14:50:23.873Z,101848.50
2023-04-09T14:52:59.523Z,101858.72
2023-04-09T14:55:28.030Z,101851.09
2023-04-09T14:57:58.023Z,101853.88
2023-04-09T15:00:26.470Z,101843.75
2023-04-09T15:02:55.172Z,101845.50
2023-04-09T15:05:23.978Z,101834.38
2023-04-09T15:07:52.263Z,101832.97
2023-04-09T15:10:21.873Z,101836.31
2023-04-09T15:12:50.073Z,101843.75
2023-04-09T15:15:18.336Z,101836.69
2023-04-09T15:17:46.822Z,101836.88
2023-04-09T15:20:15.074Z,101838.16
2023-04-09T15:22:43.358Z,101830.56
2023-04-09T15:25:14.383Z,101833.88
2023-04-09T15:27:44.389Z,101826.63
2023-04-09T15:30:12.793Z,101832.66
2023-04-09T15:32:46.215Z,101825.69
2023-04-09T15:35:19.131Z,101831.25
2023-04-09T15:37:47.682Z,101826.09
2023-04-09T15:40:16.235Z,101813.38
2023-04-09T15:42:45.963Z,101821.47
2023-04-09T15:45:16.478Z,101821.91
2023-04-09T15:47:46.225Z,101819.69
2023-04-09T15:50:15.293Z,101819.31
2023-04-09T15:52:43.587Z,101816.78
2023-04-09T15:55:12.364Z,101819.78
2023-04-09T15:57:40.586Z,101818.31
2023-04-09T16:00:11.881Z,101815.22
2023-04-09T16:02:41.177Z,101818.06
2023-04-09T16:05:09.508Z,101824.25
2023-04-09T16:07:42.462Z,101825.06
2023-04-09T16:10:11.284Z,101824.69
2023-04-09T16:12:39.570Z,101828.84
2023-04-09T16:15:10.878Z,101821.72
2023-04-09T16:17:41.259Z,101822.91
2023-04-09T16:20:10.558Z,101829.47
2023-04-09T16:22:39.293Z,101821.13
2023-04-09T16:25:09.103Z,101820.09
2023-04-09T16:27:37.741Z,101820.25
2023-04-09T16:30:06.715Z,101815.69
2023-04-09T16:32:36.254Z,101821.56
2023-04-09T16:35:04.636Z,101813.72
2023-04-09T16:37:33.266Z,101818.66
2023-04-09T16:40:01.781Z,101822.25
2023-04-09T16:42:37.646Z,101817.59
2023-04-09T16:45:06.378Z,101816.44
2023-04-09T16:47:36.371Z,101817.78
2023-04-09T16:50:12.229Z,101816.03
2023-04-09T16:52:40.737Z,101821.16
2023-04-09T16:55:09.693Z,101812.53
2023-04-09T16:57:38.268Z,101807.41
2023-04-09T17:00:08.954Z,101814.97
2023-04-09T17:02:40.684Z,101807.09
2023-04-09T17:05:09.718Z,101811.09
2023-04-09T17:07:38.527Z,101821.09
2023-04-09T17:10:10.849Z,101819.97
2023-04-09T17:12:39.672Z,101825.81
2023-04-09T17:15:08.903Z,101818.28
2023-04-09T17:17:38.630Z,101824.66
2023-04-09T17:20:08.282Z,101827.34
2023-04-09T17:22:36.849Z,101820.69
2023-04-09T17:25:05.466Z,101826.47
2023-04-09T17:27:33.789Z,101818.75
2023-04-09T17:30:02.088Z,101813.41
2023-04-09T17:32:30.727Z,101819.94
2023-04-09T17:35:00.810Z,101832.47
2023-04-09T17:37:29.965Z,101826.66
2023-04-09T17:39:58.139Z,101822.13
2023-04-09T17:42:26.385Z,101816.75
2023-04-09T17:44:54.815Z,101826.91
2023-04-09T17:47:23.120Z,101824.78
2023-04-09T17:49:51.793Z,101828.88
2023-04-09T17:52:21.690Z,101828.44
2023-04-09T17:54:50.907Z,101833.34
2023-04-09T17:57:19.064Z,101840.72
2023-04-09T17:59:47.349Z,101839.06
2023-04-09T18:02:15.720Z,101840.06
2023-04-09T18:04:44.129Z,101836.00
2023-04-09T18:07:12.550Z,101843.50
2023-04-09T18:09:42.196Z,101848.47
2023-04-09T18:12:10.929Z,101847.09
2023-04-09T18:14:39.401Z,101843.38
2023-04-09T18:17:09.388Z,101850.00
2023-04-09T18:19:38.103Z,101846.09
2023-04-09T18:22:06.395Z,101849.22
2023-04-09T18:24:35.311Z,101858.50
2023-04-09T18:27:20.474Z,101848.91
2023-04-09T18:29:49.454Z,101859.88
2023-04-09T18:32:19.604Z,101855.28
2023-04-09T18:34:58.553Z,101855.91
2023-04-09T18:37:26.822Z,101865.53
2023-04-09T18:39:55.433Z,101857.47
2023-04-09T18:42:25.533Z,101866.06
2023-04-09T18:45:00.171Z,101871.50
2023-04-09T18:47:30.482Z,101865.28
2023-04-09T18:49:59.392Z,101866.00
2023-04-09T18:52:32.450Z,101864.97
2023-04-09T18:55:06.724Z,101862.03
2023-04-09T18:57:36.466Z,101860.16
2023-04-09T19:00:05.241Z,101856.22
2023-04-09T19:02:41.156Z,101863.56
2023-04-09T19:05:12.021Z,101869.47
2023-04-09T19:07:40.556Z,101869.91
2023-04-09T19:10:10.732Z,101870.22
2023-04-09T19:12:48.697Z,101868.97
2023-04-09T19:15:17.802Z,101875.38
2023-04-09T19:17:47.584Z,101868.78
2023-04-09T19:20:15.862Z,101875.72
2023-04-09T19:22:47.971Z,101872.91
2023-04-09T19:25:16.658Z,101866.81
2023-04-09T19:27:46.920Z,101876.66
2023-04-09T19:30:15.127Z,101873.88
2023-04-09T19:32:43.653Z,101879.09
2023-04-09T19:35:12.605Z,101878.66
2023-04-09T19:37:41.267Z,101872.25
2023-04-09T19:40:10.737Z,101879.16
2023-04-09T19:42:39.150Z,101876.22
2023-04-09T19:45:10.093Z,101883.94
2023-04-09T19:47:38.380Z,101881.69
2023-04-09T19:50:07.734Z,101879.59
2023-04-09T19:52:36.010Z,101877.22
2023-04-09T19:55:05.088Z,101877.63
2023-04-09T19:57:33.373Z,101887.72
2023-04-09T20:00:01.462Z,101881.16
2023-04-09T20:02:31.926Z,101880.59
2023-04-09T20:05:00.099Z,101878.19
2023-04-09T20:07:28.376Z,101881.13
2023-04-09T20:09:56.566Z,101883.25
2023-04-09T20:12:29.427Z,101877.22
2023-04-09T20:14:57.996Z,101874.13
2023-04-09T20:17:26.681Z,101872.59
2023-04-09T20:19:57.134Z,101880.88
2023-04-09T20:22:25.262Z,101875.13
2023-04-09T20:24:56.731Z,101869.38
2023-04-09T20:27:25.291Z,101881.94
2023-04-09T20:29:53.574Z,101880.69
2023-04-09T20:32:22.735Z,101873.84
2023-04-09T20:34:50.970Z,101872.41
2023-04-09T20:37:20.502Z,101878.88
2023-04-09T20:39:48.730Z,101873.97
2023-04-09T20:42:17.199Z,101870.72
2023-04-09T20:44:45.393Z,101871.97
2023-04-09T20:47:15.571Z,101864.28
2023-04-09T20:50:03.359Z,101862.16
2023-04-09T20:52:32.967Z,101868.47
2023-04-09T20:55:01.081Z,101859.78
2023-04-09T20:57:29.296Z,101861.06
2023-04-09T20:59:57.834Z,101870.00
2023-04-09T21:02:26.023Z,101866.63
2023-04-09T21:05:00.033Z,101864.94
2023-04-09T21:07:33.069Z,101866.19
2023-04-09T21:10:05.692Z,101867.13
2023-04-09T21:12:34.795Z,101865.44
2023-04-09T21:15:03.366Z,101865.59
2023-04-09T21:17:33.144Z,101872.00
2023-04-09T21:20:02.021Z,101866.97
2023-04-09T21:22:30.165Z,101869.75
2023-04-09T21:24:59.735Z,101868.50
2023-04-09T21:27:27.907Z,101859.81
2023-04-09T21:29:57.547Z,101858.13
2023-04-09T21:32:26.213Z,101862.03
2023-04-09T21:34:55.237Z,101865.06
2023-04-09T21:37:23.980Z,101861.00
2023-04-09T21:39:52.022Z,101865.88
2023-04-09T21:42:21.693Z,101866.97
2023-04-09T21:44:49.845Z,101856.78
2023-04-09T21:47:18.355Z,101860.66
2023-04-09T21:49:46.698Z,101863.44
2023-04-09T21:52:15.278Z,101860.19
2023-04-09T21:54:44.537Z,101864.94
2023-04-09T21:57:13.017Z,101854.59
2023-04-09T21:59:45.393Z,101848.81
2023-04-09T22:02:13.858Z,101850.63
2023-04-09T22:04:45.433Z,101858.72
2023-04-09T22:07:13.990Z,101857.19
2023-04-09T22:09:42.278Z,101853.72
2023-04-09T22:12:10.820Z,101855.06
2023-04-09T22:14:40.595Z,101851.56
2023-04-09T22:17:12.819Z,101850.25
2023-04-09T22:19:41.190Z,101849.69
2023-04-09T22:22:12.285Z,101849.09
2023-04-09T22:24:41.847Z,101862.50
2023-04-09T22:27:10.129Z,101858.41
2023-04-09T22:29:40.630Z,101868.59
2023-04-09T22:32:10.842Z,101863.78
2023-04-09T22:34:42.625Z,101863.91
2023-04-09T22:37:13.334Z,101867.22
2023-04-09T22:39:44.863Z,101863.84
2023-04-09T22:42:13.519Z,101864.22
2023-04-09T22:44:43.772Z,101864.63
2023-04-09T22:47:12.504Z,101862.34
2023-04-09T22:49:41.968Z,101857.41
2023-04-09T22:52:10.684Z,101858.75
2023-04-09T22:54:39.108Z,101855.63
2023-04-09T22:57:07.224Z,101853.22
2023-04-09T23:02:06.916Z,101860.03
2023-04-09T23:04:35.282Z,101862.19
2023-04-09T23:07:05.053Z,101858.25
2023-04-09T23:09:33.404Z,101861.97
2023-04-09T23:12:02.277Z,101861.25
2023-04-09T23:14:30.462Z,101862.34
2023-04-09T23:16:58.550Z,101866.91
2023-04-09T23:19:28.613Z,101865.50
2023-04-09T23:21:56.867Z,101865.63
2023-04-09T23:24:28.570Z,101868.41
2023-04-09T23:26:57.038Z,101865.25
2023-04-09T23:29:25.263Z,101863.72
2023-04-09T23:31:53.354Z,101864.94
2023-04-09T23:34:21.990Z,101864.31
2023-04-09T23:36:53.460Z,101863.88
2023-04-09T23:39:22.364Z,101860.63
2023-04-09T23:41:52.473Z,101864.34
2023-04-09T23:44:20.615Z,101859.28
2023-04-09T23:46:49.255Z,101854.09
2023-04-09T23:49:17.475Z,101853.38
2023-04-09T23:51:47.033Z,101844.75
2023-04-09T23:54:15.396Z,101846.56
2023-04-09T23:56:43.579Z,101851.13
2023-04-09T23:59:13.177Z,101851.72
